PWSweather.com
Personal Weather Stations
Station Observations
KTXPLANO60
Highlands Of Russell Park, Plano, TX 75025

Highlands Of Russell ParkPlano, TX 75025

Lat: 33.10431671, Lon: -96.75176239

Elevation: 761

Station Type: Davis Wireless VP2 Plus

http://www.planoweather.com

Latest ConditionsUpdated 11:00:06 AM CST Thursday, Feb 11, 2016
Currently Today's Max Today's Min Today's Average
Temperature 66.2°F19.0°C 66.6°F19.2°C 47.5°F8.6°C 56.0°F13.3°C
Dew Point 33.8°F1.0°C 37.9°F3.3°C 33.0°F0.6°C 34.9°F1.6°C
Winds 4.2 mph NW6.8 kmh NW 12.1 mph SW19.5 kmh SW - 6.1 mph 9.8 kmh
Wind Gusts 7.0 mph11.3 kmh 18.0 mph29.0 kmh - -
Humidity 30% 59% 30% 46%
Pressure 30.06 in1017.9 mb 30.06 in1017.9 mb 29.96 in1014.6 mb -
Hour Temp Dew Point Humidity Winds Wind Gusts Pressure Precip Precip Rate Daily Precip Total
11:00 AM 66.2°F19.0°C 33.8°F1.0°C 30% 4.2 mph NW6.8 kmh NW 7.0 mph11.3 kmh 30.06 in1017.9 mb - 0.00 in0.0 mm 0.00 in0.0 mm
10:50 AM 66.6°F19.2°C 35.0°F1.7°C 31% 3.8 mph NW6.1 kmh NW 5.0 mph8.0 kmh 30.06 in1017.9 mb - 0.00 in0.0 mm 0.00 in0.0 mm
10:40 AM 65.2°F18.4°C 33.8°F1.0°C 31% 5.2 mph NNW8.4 kmh NNW 6.0 mph9.7 kmh 30.06 in1017.9 mb - 0.00 in0.0 mm 0.00 in0.0 mm
10:30 AM 65.6°F18.7°C 35.7°F2.1°C 33% 4.3 mph NW6.9 kmh NW 7.0 mph11.3 kmh 30.06 in1017.9 mb - 0.00 in0.0 mm 0.00 in0.0 mm
10:20 AM 64.3°F17.9°C 34.6°F1.4°C 33% 5.5 mph W8.9 kmh W 7.0 mph11.3 kmh 30.06 in1017.9 mb - 0.00 in0.0 mm 0.00 in0.0 mm
10:10 AM 63.7°F17.6°C 33.3°F0.7°C 32% 7.2 mph WNW11.6 kmh WNW 11.0 mph17.7 kmh 30.06 in1017.9 mb - 0.00 in0.0 mm 0.00 in0.0 mm
10:00 AM 63.4°F17.4°C 33.8°F1.0°C 33% 7.8 mph NW12.6 kmh NW 9.0 mph14.5 kmh 30.06 in1017.9 mb - 0.00 in0.0 mm 0.00 in0.0 mm
09:50 AM 62.3°F16.8°C 34.2°F1.2°C 35% 6.3 mph WNW10.1 kmh WNW 7.0 mph11.3 kmh 30.06 in1017.9 mb - 0.00 in0.0 mm 0.00 in0.0 mm
09:40 AM 62.0°F16.7°C 34.0°F1.1°C 35% 1.9 mph WSW3.1 kmh WSW 6.0 mph9.7 kmh 30.06 in1017.9 mb - 0.00 in0.0 mm 0.00 in0.0 mm
09:30 AM 61.5°F16.4°C 33.6°F0.9°C 35% 5.3 mph NW8.5 kmh NW 8.0 mph12.9 kmh 30.06 in1017.9 mb - 0.00 in0.0 mm 0.00 in0.0 mm
09:20 AM 61.1°F16.2°C 33.9°F1.1°C 36% 3.1 mph WNW5.0 kmh WNW 6.0 mph9.7 kmh 30.06 in1017.9 mb - 0.00 in0.0 mm 0.00 in0.0 mm
09:10 AM 60.1°F15.6°C 33.0°F0.6°C 36% 5.2 mph WSW8.4 kmh WSW 10.0 mph16.1 kmh 30.05 in1017.6 mb - 0.00 in0.0 mm 0.00 in0.0 mm
09:00 AM 59.8°F15.4°C 33.5°F0.8°C 37% 9.0 mph W14.5 kmh W 12.0 mph19.3 kmh 30.05 in1017.6 mb - 0.00 in0.0 mm 0.00 in0.0 mm
08:50 AM 57.7°F14.3°C 35.3°F1.8°C 43% 2.5 mph W4.0 kmh W 4.0 mph6.4 kmh 30.05 in1017.6 mb - 0.00 in0.0 mm 0.00 in0.0 mm
08:40 AM 55.8°F13.2°C 35.9°F2.2°C 47% 2.5 mph WSW4.0 kmh WSW 6.0 mph9.7 kmh 30.05 in1017.6 mb - 0.00 in0.0 mm 0.00 in0.0 mm
08:30 AM 55.1°F12.8°C 35.7°F2.1°C 48% 1.9 mph SW3.1 kmh SW 4.0 mph6.4 kmh 30.05 in1017.6 mb - 0.00 in0.0 mm 0.00 in0.0 mm
08:20 AM 53.6°F12.0°C 35.4°F1.9°C 50% 2.5 mph SW4.0 kmh SW 3.0 mph4.8 kmh 30.04 in1017.3 mb - 0.00 in0.0 mm 0.00 in0.0 mm
08:10 AM 51.2°F10.7°C 35.1°F1.7°C 54% 1.9 mph SW3.1 kmh SW 3.0 mph4.8 kmh 30.05 in1017.6 mb - 0.00 in0.0 mm 0.00 in0.0 mm
08:00 AM 49.2°F9.6°C 35.1°F1.7°C 58% 2.4 mph SW3.9 kmh SW 3.0 mph4.8 kmh 30.04 in1017.3 mb - 0.00 in0.0 mm 0.00 in0.0 mm
07:50 AM 47.6°F8.7°C 34.0°F1.1°C 59% 1.8 mph SW2.9 kmh SW 3.0 mph4.8 kmh 30.04 in1017.3 mb - 0.00 in0.0 mm 0.00 in0.0 mm
07:40 AM 47.5°F8.6°C 33.9°F1.1°C 59% 1.8 mph SW2.9 kmh SW 3.0 mph4.8 kmh 30.03 in1016.9 mb - 0.00 in0.0 mm 0.00 in0.0 mm
07:30 AM 47.5°F8.6°C 33.9°F1.1°C 59% 1.9 mph SW3.1 kmh SW 3.0 mph4.8 kmh 30.03 in1016.9 mb - 0.00 in0.0 mm 0.00 in0.0 mm
07:20 AM 47.6°F8.7°C 33.5°F0.8°C 58% 1.6 mph SW2.6 kmh SW 3.0 mph4.8 kmh 30.04 in1017.3 mb - 0.00 in0.0 mm 0.00 in0.0 mm
07:10 AM 47.8°F8.8°C 33.7°F0.9°C 58% 0.3 mph SW0.5 kmh SW 1.0 mph1.6 kmh 30.03 in1016.9 mb - 0.00 in0.0 mm 0.00 in0.0 mm
07:00 AM 47.6°F8.7°C 33.5°F0.8°C 58% 2.5 mph SW4.0 kmh SW 4.0 mph6.4 kmh 30.02 in1016.6 mb - 0.00 in0.0 mm 0.00 in0.0 mm
06:50 AM 47.8°F8.8°C 33.7°F0.9°C 58% 2.2 mph SW3.5 kmh SW 3.0 mph4.8 kmh 30.02 in1016.6 mb - 0.00 in0.0 mm 0.00 in0.0 mm
06:40 AM 48.2°F9.0°C 33.3°F0.7°C 56% 0.9 mph SW1.4 kmh SW 3.0 mph4.8 kmh 30.02 in1016.6 mb - 0.00 in0.0 mm 0.00 in0.0 mm
06:30 AM 48.9°F9.4°C 33.8°F1.0°C 56% 0.1 mph SW0.2 kmh SW -- 30.01 in1016.3 mb - 0.00 in0.0 mm 0.00 in0.0 mm
06:20 AM 49.4°F9.7°C 33.9°F1.1°C 55% 1.8 mph SW2.9 kmh SW 2.0 mph3.2 kmh 30.01 in1016.3 mb - 0.00 in0.0 mm 0.00 in0.0 mm
06:10 AM 49.9°F9.9°C 33.9°F1.1°C 54% 1.8 mph SW2.9 kmh SW 3.0 mph4.8 kmh 30.01 in1016.3 mb - 0.00 in0.0 mm 0.00 in0.0 mm
06:00 AM 50.2°F10.1°C 34.2°F1.2°C 54% 2.4 mph SW3.9 kmh SW 3.0 mph4.8 kmh 30.01 in1016.3 mb - 0.00 in0.0 mm 0.00 in0.0 mm
05:50 AM 50.6°F10.3°C 34.1°F1.2°C 53% 2.8 mph SW4.5 kmh SW 4.0 mph6.4 kmh 30.00 in1015.9 mb - 0.00 in0.0 mm 0.00 in0.0 mm
05:40 AM 51.3°F10.7°C 34.2°F1.2°C 52% 2.2 mph SW3.5 kmh SW 3.0 mph4.8 kmh 30.00 in1015.9 mb - 0.00 in0.0 mm 0.00 in0.0 mm
05:30 AM 52.1°F11.2°C 34.5°F1.4°C 51% 0.3 mph SW0.5 kmh SW 2.0 mph3.2 kmh 30.00 in1015.9 mb - 0.00 in0.0 mm 0.00 in0.0 mm
05:20 AM 52.6°F11.4°C 34.5°F1.4°C 50% 2.6 mph SW4.2 kmh SW 4.0 mph6.4 kmh 30.00 in1015.9 mb - 0.00 in0.0 mm 0.00 in0.0 mm
05:10 AM 53.2°F11.8°C 34.5°F1.4°C 49% 1.9 mph WSW3.1 kmh WSW 5.0 mph8.0 kmh 30.00 in1015.9 mb - 0.00 in0.0 mm 0.00 in0.0 mm
05:00 AM 53.6°F12.0°C 34.4°F1.3°C 48% 5.7 mph SW9.2 kmh SW 10.0 mph16.1 kmh 29.99 in1015.6 mb - 0.00 in0.0 mm 0.00 in0.0 mm
04:50 AM 53.9°F12.2°C 34.2°F1.2°C 47% 7.5 mph SW12.1 kmh SW 11.0 mph17.7 kmh 29.98 in1015.2 mb - 0.00 in0.0 mm 0.00 in0.0 mm
04:40 AM 54.2°F12.3°C 34.4°F1.3°C 47% 6.8 mph SSW10.9 kmh SSW 10.0 mph16.1 kmh 29.98 in1015.2 mb - 0.00 in0.0 mm 0.00 in0.0 mm
04:30 AM 54.5°F12.5°C 34.1°F1.2°C 46% 8.2 mph SW13.2 kmh SW 11.0 mph17.7 kmh 29.97 in1014.9 mb - 0.00 in0.0 mm 0.00 in0.0 mm
04:20 AM 54.7°F12.6°C 34.3°F1.3°C 46% 8.1 mph SW13.0 kmh SW 12.0 mph19.3 kmh 29.97 in1014.9 mb - 0.00 in0.0 mm 0.00 in0.0 mm
04:10 AM 54.9°F12.7°C 34.5°F1.4°C 46% 7.6 mph SW12.2 kmh SW 10.0 mph16.1 kmh 29.97 in1014.9 mb - 0.00 in0.0 mm 0.00 in0.0 mm
04:00 AM 55.1°F12.8°C 34.7°F1.5°C 46% 6.8 mph SW10.9 kmh SW 9.0 mph14.5 kmh 29.97 in1014.9 mb - 0.00 in0.0 mm 0.00 in0.0 mm
03:50 AM 55.2°F12.9°C 34.8°F1.6°C 46% 8.6 mph SW13.8 kmh SW 11.0 mph17.7 kmh 29.97 in1014.9 mb - 0.00 in0.0 mm 0.00 in0.0 mm
03:40 AM 55.3°F12.9°C 34.9°F1.6°C 46% 8.7 mph SW14.0 kmh SW 13.0 mph20.9 kmh 29.97 in1014.9 mb - 0.00 in0.0 mm 0.00 in0.0 mm
03:30 AM 55.5°F13.1°C 35.0°F1.7°C 46% 10.7 mph SSW17.2 kmh SSW 15.0 mph24.1 kmh 29.96 in1014.6 mb - 0.00 in0.0 mm 0.00 in0.0 mm
03:20 AM 55.9°F13.3°C 34.8°F1.6°C 45% 8.7 mph SSW14.0 kmh SSW 13.0 mph20.9 kmh 29.96 in1014.6 mb - 0.00 in0.0 mm 0.00 in0.0 mm
03:10 AM 56.3°F13.5°C 35.2°F1.8°C 45% 8.4 mph SW13.5 kmh SW 16.0 mph25.7 kmh 29.96 in1014.6 mb - 0.00 in0.0 mm 0.00 in0.0 mm
03:00 AM 56.8°F13.8°C 35.1°F1.7°C 44% 9.4 mph SW15.1 kmh SW 13.0 mph20.9 kmh 29.96 in1014.6 mb - 0.00 in0.0 mm 0.00 in0.0 mm
02:50 AM 57.2°F14.0°C 34.9°F1.6°C 43% 10.5 mph SW16.9 kmh SW 14.0 mph22.5 kmh 29.96 in1014.6 mb - 0.00 in0.0 mm 0.00 in0.0 mm
02:40 AM 57.4°F14.1°C 35.1°F1.7°C 43% 11.5 mph SSW18.5 kmh SSW 16.0 mph25.7 kmh 29.96 in1014.6 mb - 0.00 in0.0 mm 0.00 in0.0 mm
02:30 AM 57.6°F14.2°C 35.3°F1.8°C 43% 11.5 mph SSW18.5 kmh SSW 17.0 mph27.4 kmh 29.96 in1014.6 mb - 0.00 in0.0 mm 0.00 in0.0 mm
02:20 AM 57.8°F14.3°C 35.4°F1.9°C 43% 9.6 mph SW15.4 kmh SW 12.0 mph19.3 kmh 29.96 in1014.6 mb - 0.00 in0.0 mm 0.00 in0.0 mm
02:10 AM 58.1°F14.5°C 35.7°F2.1°C 43% 11.3 mph SW18.2 kmh SW 16.0 mph25.7 kmh 29.97 in1014.9 mb - 0.00 in0.0 mm 0.00 in0.0 mm
02:00 AM 58.2°F14.6°C 35.8°F2.1°C 43% 12.1 mph SW19.5 kmh SW 16.0 mph25.7 kmh 29.96 in1014.6 mb - 0.00 in0.0 mm 0.00 in0.0 mm
01:50 AM 58.3°F14.6°C 35.9°F2.2°C 43% 11.2 mph SW18.0 kmh SW 17.0 mph27.4 kmh 29.97 in1014.9 mb - 0.00 in0.0 mm 0.00 in0.0 mm
01:40 AM 58.4°F14.7°C 36.0°F2.2°C 43% 11.6 mph SSW18.7 kmh SSW 16.0 mph25.7 kmh 29.97 in1014.9 mb - 0.00 in0.0 mm 0.00 in0.0 mm
01:30 AM 58.2°F14.6°C 36.4°F2.4°C 44% 11.4 mph SW18.3 kmh SW 16.0 mph25.7 kmh 29.96 in1014.6 mb - 0.00 in0.0 mm 0.00 in0.0 mm
01:20 AM 58.3°F14.6°C 36.4°F2.4°C 44% 10.5 mph SW16.9 kmh SW 18.0 mph29.0 kmh 29.97 in1014.9 mb - 0.00 in0.0 mm 0.00 in0.0 mm
01:10 AM 58.3°F14.6°C 37.0°F2.8°C 45% 8.5 mph SW13.7 kmh SW 13.0 mph20.9 kmh 29.97 in1014.9 mb - 0.00 in0.0 mm 0.00 in0.0 mm
01:00 AM 58.5°F14.7°C 37.2°F2.9°C 45% 11.4 mph SSW18.3 kmh SSW 16.0 mph25.7 kmh 29.97 in1014.9 mb - 0.00 in0.0 mm 0.00 in0.0 mm
12:50 AM 58.7°F14.8°C 37.4°F3.0°C 45% 9.9 mph SSW15.9 kmh SSW 13.0 mph20.9 kmh 29.97 in1014.9 mb - 0.00 in0.0 mm 0.00 in0.0 mm
12:40 AM 59.0°F15.0°C 37.1°F2.8°C 44% 9.5 mph SSW15.3 kmh SSW 14.0 mph22.5 kmh 29.97 in1014.9 mb - 0.00 in0.0 mm 0.00 in0.0 mm
12:30 AM 59.1°F15.1°C 37.8°F3.2°C 45% 12.0 mph SW19.3 kmh SW 18.0 mph29.0 kmh 29.97 in1014.9 mb - 0.00 in0.0 mm 0.00 in0.0 mm
12:20 AM 59.2°F15.1°C 37.3°F2.9°C 44% 9.9 mph SSW15.9 kmh SSW 17.0 mph27.4 kmh 29.97 in1014.9 mb - 0.00 in0.0 mm 0.00 in0.0 mm
12:10 AM 59.5°F15.3°C 37.6°F3.1°C 44% 9.9 mph S15.9 kmh S 15.0 mph24.1 kmh 29.97 in1014.9 mb - 0.00 in0.0 mm 0.00 in0.0 mm
12:00 AM 59.9°F15.5°C 37.9°F3.3°C 44% 9.6 mph SSW15.4 kmh SSW 13.0 mph20.9 kmh 29.97 in1014.9 mb - 0.00 in0.0 mm 0.00 in0.0 mm